Terminal Aerodrome Forecast
Issued by NWS

Home | Current Version | Previous Version | Text Only | Print | Product List | Glossary On
Versions: 1 2 3 4 5 6 7 8 9 10 11 12 13 14 15 16 17 18 19 20 21 22 23
000
FTUS44 KOUN 301142
TAFCSM
TAF
KCSM 301142Z 3012/0112 29014G24KT P6SM OVC010
     FM301400 29024G34KT P6SM BKN025
     FM301600 28034G44KT P6SM BKN040
     FM010100 28015KT P6SM SKC
      AMD NOT SKED=

USA.gov is the U.S. government's official web portal to all federal, state and local government web resources and services.